Time;durP1;ratioP1;P1;durP2;ratioP2;P2;SDS_P1;SDS_P2;PMS_P1;PMS_P2;Temp;Humidity;BMP_temperature;BMP_pressure;BME280_temperature;BME280_humidity;BME280_pressure;Samples;Min_cycle;Max_cycle;Signal;HPM_P1;HPM_P2
2022/01/16 00:00:26;;;;;;;5.07;2.00;;;2.40;99.90;;;;;;5047588;28;20560;-70
2022/01/16 00:05:39;;;;;;;3.87;1.87;;;2.40;99.90;;;;;;5029110;28;20646;-67
2022/01/16 00:08:07;;;;;;;2.47;1.70;;;2.40;99.90;;;;;;5028670;28;20690;-68
2022/01/16 00:10:34;;;;;;;13.87;5.57;;;2.40;99.90;;;;;;5054340;27;20197;-68
2022/01/16 00:13:00;;;;;;;9.40;4.17;;;2.50;99.90;;;;;;5064444;28;20201;-68
2022/01/16 00:15:28;;;;;;;4.07;2.23;;;2.50;99.90;;;;;;5052083;28;20229;-67
2022/01/16 00:17:59;;;;;;;5.47;2.33;;;2.50;99.90;;;;;;5051726;28;20215;-66
2022/01/16 00:20:27;;;;;;;5.33;2.20;;;2.40;99.90;;;;;;5052161;28;20295;-69
2022/01/16 00:22:54;;;;;;;5.10;2.20;;;2.40;99.90;;;;;;5067709;27;20204;-67
2022/01/16 00:25:22;;;;;;;4.87;2.10;;;2.40;99.90;;;;;;5113746;27;20200;-66
2022/01/16 00:27:49;;;;;;;3.63;2.00;;;2.40;99.90;;;;;;5071526;28;20213;-69
2022/01/16 00:30:17;;;;;;;3.90;2.10;;;2.40;99.90;;;;;;5145737;27;20198;-68
2022/01/16 00:32:44;;;;;;;6.30;1.97;;;2.40;99.90;;;;;;5157084;27;20198;-68
2022/01/16 00:35:12;;;;;;;3.83;1.90;;;2.40;99.90;;;;;;5121701;27;20207;-68
2022/01/16 00:37:39;;;;;;;6.77;2.00;;;2.40;99.90;;;;;;5070977;28;20213;-67
2022/01/16 00:40:08;;;;;;;4.73;1.77;;;2.40;99.90;;;;;;5034887;28;20226;-66
2022/01/16 00:42:37;;;;;;;4.37;1.93;;;2.40;99.90;;;;;;5031357;28;20234;-68
2022/01/16 00:45:04;;;;;;;3.60;2.00;;;2.40;99.90;;;;;;5031676;28;20339;-68
2022/01/16 00:47:31;;;;;;;4.80;1.70;;;2.40;99.90;;;;;;5031692;28;20205;-69
2022/01/16 00:49:58;;;;;;;8.17;2.10;;;2.40;99.90;;;;;;5035033;28;20198;-68
2022/01/16 00:52:25;;;;;;;5.10;1.70;;;2.40;99.90;;;;;;5030689;28;20203;-69
2022/01/16 00:54:51;;;;;;;5.30;1.80;;;2.40;99.90;;;;;;5031356;28;20206;-67
2022/01/16 00:57:19;;;;;;;2.60;1.80;;;2.40;99.90;;;;;;5031253;28;20222;-67
2022/01/16 00:59:48;;;;;;;3.33;1.70;;;2.40;99.90;;;;;;5031597;28;20210;-67
2022/01/16 01:02:14;;;;;;;3.87;1.90;;;2.40;99.90;;;;;;5031187;28;20210;-68
2022/01/16 01:04:46;;;;;;;3.33;1.70;;;2.40;99.90;;;;;;5031502;28;20206;-69
2022/01/16 01:07:13;;;;;;;2.70;1.63;;;2.30;99.90;;;;;;5031489;28;20214;-69
2022/01/16 01:09:41;;;;;;;1.97;1.60;;;2.30;99.90;;;;;;5031233;28;20206;-68
2022/01/16 01:12:09;;;;;;;4.93;1.80;;;2.40;99.90;;;;;;5031431;28;20419;-68
2022/01/16 01:14:42;;;;;;;3.13;1.67;;;2.30;99.90;;;;;;5031448;28;20351;-68
2022/01/16 01:17:20;;;;;;;2.90;1.70;;;2.40;99.90;;;;;;5034060;27;20210;-68
2022/01/16 01:19:46;;;;;;;3.27;1.60;;;2.30;99.90;;;;;;5070961;28;20602;-67
2022/01/16 01:22:13;;;;;;;4.07;2.00;;;2.30;99.90;;;;;;5071066;28;20205;-69
2022/01/16 01:24:40;;;;;;;2.87;1.83;;;2.30;99.90;;;;;;5070735;28;20204;-65
2022/01/16 01:27:13;;;;;;;3.07;1.83;;;2.30;99.90;;;;;;5070654;28;20201;-68
2022/01/16 01:29:44;;;;;;;5.20;1.80;;;2.40;99.90;;;;;;5070849;28;20630;-68
2022/01/16 01:32:12;;;;;;;3.90;1.73;;;2.40;99.90;;;;;;5070676;28;20200;-68
2022/01/16 01:34:39;;;;;;;3.57;1.80;;;2.40;99.90;;;;;;5070646;28;20205;-68
2022/01/16 01:37:05;;;;;;;3.47;1.77;;;2.40;99.90;;;;;;5070587;28;20228;-67
2022/01/16 01:39:32;;;;;;;4.40;1.97;;;2.40;99.90;;;;;;5070474;28;20235;-67
2022/01/16 01:42:07;;;;;;;3.30;1.73;;;2.40;99.90;;;;;;5070369;28;20241;-67
2022/01/16 01:52:50;;;;;;;2.80;2.00;;;2.30;99.90;;;;;;5030330;28;20655;-67
2022/01/16 01:55:17;;;;;;;4.03;2.20;;;2.30;99.90;;;;;;5030592;28;20310;-67
2022/01/16 01:57:44;;;;;;;3.63;1.80;;;2.40;99.90;;;;;;5030122;28;20228;-69
2022/01/16 02:00:17;;;;;;;2.70;1.70;;;2.30;99.90;;;;;;5054228;28;20681;-66
2022/01/16 02:02:59;;;;;;;2.83;1.60;;;2.40;99.90;;;;;;5037242;28;20201;-69
2022/01/16 02:05:26;;;;;;;4.13;1.93;;;2.40;99.90;;;;;;5031479;28;20221;-68
2022/01/16 02:07:53;;;;;;;3.93;2.00;;;2.40;99.90;;;;;;5029972;28;20916;-67
2022/01/16 02:10:20;;;;;;;2.57;1.87;;;2.50;99.90;;;;;;5030237;28;20209;-69
2022/01/16 02:12:54;;;;;;;3.67;1.63;;;2.50;99.90;;;;;;5030028;28;20297;-68
2022/01/16 02:15:38;;;;;;;4.30;2.00;;;2.50;99.90;;;;;;5030699;28;20233;-68
2022/01/16 02:29:46;;;;;;;6.93;2.27;;;2.30;99.90;;;;;;5032520;28;20225;-67
2022/01/16 02:32:38;;;;;;;5.43;2.33;;;2.20;99.90;;;;;;5029517;28;20255;-66
2022/01/16 02:35:06;;;;;;;5.17;2.10;;;2.20;99.90;;;;;;5029789;28;20206;-67
2022/01/16 02:37:33;;;;;;;4.10;2.10;;;2.20;99.90;;;;;;5032717;28;20298;-67
2022/01/16 02:40:09;;;;;;;5.50;2.43;;;2.20;99.90;;;;;;5029680;28;20225;-68
2022/01/16 02:42:39;;;;;;;5.30;2.10;;;2.10;99.90;;;;;;5029696;28;20233;-67
2022/01/16 02:45:15;;;;;;;4.47;2.13;;;2.10;99.90;;;;;;5029953;28;20194;-67
2022/01/16 02:47:42;;;;;;;6.27;2.00;;;2.20;99.90;;;;;;5029409;28;20239;-67
2022/01/16 02:50:09;;;;;;;2.90;1.93;;;2.20;99.90;;;;;;5046730;28;20202;-67
2022/01/16 02:52:36;;;;;;;3.57;2.00;;;2.20;99.90;;;;;;5049398;28;20209;-67
2022/01/16 02:55:05;;;;;;;3.93;2.10;;;2.20;99.90;;;;;;5049866;28;20226;-67
2022/01/16 02:57:35;;;;;;;3.10;1.63;;;2.30;99.90;;;;;;5049453;28;20273;-67
2022/01/16 03:00:03;;;;;;;6.40;2.30;;;2.30;99.90;;;;;;5049856;28;20281;-67
2022/01/16 03:02:30;;;;;;;6.00;2.20;;;2.40;99.90;;;;;;5046897;28;20685;-67
2022/01/16 03:04:57;;;;;;;5.20;2.00;;;2.40;99.90;;;;;;5035313;28;20197;-67
2022/01/16 03:07:24;;;;;;;3.57;2.00;;;2.40;99.90;;;;;;5049357;28;20201;-68
2022/01/16 03:10:13;;;;;;;5.77;2.20;;;2.40;99.90;;;;;;5049364;28;20259;-69
2022/01/16 03:12:41;;;;;;;4.50;2.00;;;2.40;99.90;;;;;;5048579;28;20197;-68
2022/01/16 03:15:08;;;;;;;2.47;2.07;;;2.30;99.90;;;;;;5049199;28;20564;-68
2022/01/16 03:17:41;;;;;;;3.70;2.17;;;2.40;99.90;;;;;;5048636;28;20229;-67
2022/01/16 03:22:53;;;;;;;5.53;2.03;;;2.30;99.90;;;;;;5029209;28;20205;-67
2022/01/16 03:25:20;;;;;;;3.30;1.97;;;2.30;99.90;;;;;;5029294;28;20205;-69
2022/01/16 03:27:48;;;;;;;4.57;2.33;;;2.30;99.90;;;;;;5029161;28;20198;-69
2022/01/16 03:30:15;;;;;;;4.57;2.10;;;2.30;99.90;;;;;;5028885;28;20217;-67
2022/01/16 03:32:43;;;;;;;4.23;2.23;;;2.30;99.90;;;;;;5028839;28;20226;-68
2022/01/16 03:35:10;;;;;;;5.43;2.40;;;2.30;99.90;;;;;;5029221;28;20687;-67
2022/01/16 03:37:37;;;;;;;3.23;2.07;;;2.30;99.90;;;;;;5032284;28;20229;-69
2022/01/16 03:40:07;;;;;;;3.67;1.97;;;2.20;99.90;;;;;;5029314;28;20209;-67
2022/01/16 03:42:36;;;;;;;2.30;1.70;;;2.20;99.90;;;;;;5028345;28;20238;-67
2022/01/16 03:45:05;;;;;;;3.87;2.20;;;2.20;99.90;;;;;;5044092;28;20202;-66
2022/01/16 03:47:32;;;;;;;4.17;2.00;;;2.20;99.90;;;;;;5030208;28;20208;-68
2022/01/16 03:49:59;;;;;;;4.43;2.40;;;2.20;99.90;;;;;;5037031;28;20216;-70
2022/01/16 03:52:26;;;;;;;3.93;2.00;;;2.20;99.90;;;;;;5051540;28;20201;-68
2022/01/16 03:54:53;;;;;;;5.30;2.10;;;2.20;99.90;;;;;;5052211;28;20202;-68
2022/01/16 03:57:20;;;;;;;8.50;2.03;;;2.20;99.90;;;;;;5051714;28;20228;-69
2022/01/16 03:59:47;;;;;;;4.23;1.97;;;2.20;99.90;;;;;;5052481;28;20674;-67
2022/01/16 04:02:15;;;;;;;5.13;2.10;;;2.20;99.90;;;;;;5035835;28;20202;-70
2022/01/16 04:04:42;;;;;;;3.27;1.97;;;2.10;99.90;;;;;;5032377;28;20237;-68
2022/01/16 04:07:14;;;;;;;3.80;2.10;;;2.10;99.90;;;;;;5033000;28;20222;-68
2022/01/16 04:09:41;;;;;;;3.43;2.07;;;2.10;99.90;;;;;;5032261;28;20557;-69
2022/01/16 04:12:10;;;;;;;3.53;1.90;;;2.10;99.90;;;;;;5032298;28;20210;-68
2022/01/16 04:17:24;;;;;;;4.67;2.47;;;2.10;99.90;;;;;;5031508;28;20622;-68
2022/01/16 04:19:52;;;;;;;6.00;2.60;;;2.00;99.90;;;;;;5031951;28;20206;-67
2022/01/16 04:22:20;;;;;;;4.63;2.50;;;2.10;99.90;;;;;;5031970;28;20202;-69
2022/01/16 04:24:47;;;;;;;4.40;1.97;;;2.10;99.90;;;;;;5031709;28;20206;-67
2022/01/16 04:27:15;;;;;;;3.67;1.90;;;2.10;99.90;;;;;;5031966;28;20204;-69
2022/01/16 04:29:42;;;;;;;4.97;1.90;;;2.10;99.90;;;;;;5031495;28;20206;-68
2022/01/16 04:32:10;;;;;;;4.97;2.00;;;2.10;99.90;;;;;;5032883;28;20212;-67
2022/01/16 04:34:39;;;;;;;4.13;2.10;;;2.10;99.90;;;;;;5050117;28;20204;-69
2022/01/16 04:37:06;;;;;;;5.60;1.90;;;2.10;99.90;;;;;;5050155;28;20229;-67
2022/01/16 04:39:34;;;;;;;5.13;1.97;;;2.10;99.90;;;;;;5044655;28;20204;-68
2022/01/16 04:44:46;;;;;;;2.77;1.90;;;2.10;99.90;;;;;;5051790;28;20230;-69
2022/01/16 04:47:13;;;;;;;5.07;2.13;;;2.10;99.90;;;;;;5051326;28;20240;-68
2022/01/16 04:49:41;;;;;;;4.90;1.87;;;2.10;99.90;;;;;;5049728;28;20212;-68
2022/01/16 04:52:08;;;;;;;5.30;2.00;;;2.10;99.90;;;;;;5051414;28;20206;-67
2022/01/16 04:54:35;;;;;;;7.33;2.30;;;2.10;99.90;;;;;;5051006;28;20205;-68
2022/01/16 04:57:02;;;;;;;4.27;1.90;;;2.10;99.90;;;;;;5051269;28;20229;-70
2022/01/16 04:59:29;;;;;;;2.30;1.90;;;2.10;99.90;;;;;;5046240;28;20648;-68
2022/01/16 05:01:56;;;;;;;4.77;2.20;;;2.10;99.90;;;;;;5031344;28;20555;-70
2022/01/16 05:04:23;;;;;;;5.07;2.50;;;2.10;99.90;;;;;;5031062;28;20229;-67
2022/01/16 05:06:51;;;;;;;4.50;1.87;;;2.10;99.90;;;;;;5035791;28;20547;-68
2022/01/16 05:09:18;;;;;;;5.43;2.37;;;2.10;99.90;;;;;;5050691;28;20216;-67
2022/01/16 05:11:45;;;;;;;5.17;1.90;;;2.10;99.90;;;;;;5051638;28;20567;-69
2022/01/16 05:16:57;;;;;;;4.47;2.10;;;2.00;99.90;;;;;;5050754;28;20245;-67
2022/01/16 05:19:23;;;;;;;4.33;2.10;;;2.00;99.90;;;;;;5050781;28;20562;-68
2022/01/16 05:21:52;;;;;;;4.00;2.10;;;2.00;99.90;;;;;;5051021;28;20205;-68
2022/01/16 05:24:18;;;;;;;4.03;1.97;;;1.90;99.90;;;;;;5050935;28;20537;-69
2022/01/16 05:26:46;;;;;;;3.77;2.10;;;1.90;99.90;;;;;;5046032;28;20292;-66
2022/01/16 05:29:13;;;;;;;5.10;2.00;;;1.90;99.90;;;;;;5049134;28;20212;-69
2022/01/16 05:31:44;;;;;;;5.90;2.10;;;1.80;99.90;;;;;;5050981;28;20206;-69
2022/01/16 05:34:11;;;;;;;4.37;2.73;;;1.80;99.90;;;;;;5050203;28;20600;-67
2022/01/16 05:36:38;;;;;;;6.53;2.90;;;1.80;99.90;;;;;;5050884;28;20546;-68
2022/01/16 05:39:06;;;;;;;4.77;2.40;;;1.90;99.90;;;;;;5050948;28;20209;-69
2022/01/16 05:41:33;;;;;;;4.23;2.20;;;1.90;99.90;;;;;;5050496;28;20718;-69
2022/01/16 05:43:59;;;;;;;6.20;2.53;;;1.90;99.90;;;;;;5050372;28;20210;-67
2022/01/16 05:46:26;;;;;;;4.07;2.20;;;1.90;99.90;;;;;;5050081;28;20225;-68
2022/01/16 05:48:53;;;;;;;4.30;2.20;;;1.90;99.90;;;;;;5042546;28;20220;-67
2022/01/16 05:51:20;;;;;;;3.87;1.93;;;1.90;99.90;;;;;;5030253;28;20220;-69
2022/01/16 05:53:48;;;;;;;6.13;2.07;;;1.90;99.90;;;;;;5030526;28;20198;-67
2022/01/16 05:56:16;;;;;;;6.13;2.33;;;2.00;99.90;;;;;;5030371;28;20286;-68
2022/01/16 05:58:43;;;;;;;7.40;2.50;;;2.00;99.90;;;;;;5030354;28;20226;-69
2022/01/16 06:01:10;;;;;;;4.27;2.30;;;2.00;99.90;;;;;;5030512;28;20278;-67
2022/01/16 06:03:37;;;;;;;3.20;2.17;;;2.00;99.90;;;;;;5030524;28;20659;-68
2022/01/16 06:06:04;;;;;;;3.47;2.13;;;2.00;99.90;;;;;;5030189;28;20538;-68
2022/01/16 06:08:30;;;;;;;3.75;2.30;;;2.00;99.90;;;;;;5029198;28;20423;-69
2022/01/16 06:10:57;;;;;;;5.20;2.50;;;2.10;99.90;;;;;;5029995;28;20289;-69
2022/01/16 06:13:25;;;;;;;3.17;2.00;;;2.10;99.90;;;;;;5030331;28;20686;-68
2022/01/16 06:15:52;;;;;;;6.77;2.27;;;2.10;99.90;;;;;;5030234;28;20232;-67
2022/01/16 06:18:19;;;;;;;5.00;2.20;;;2.10;99.90;;;;;;5030034;28;20237;-70
2022/01/16 06:20:47;;;;;;;5.67;2.47;;;2.00;99.90;;;;;;5029884;28;20202;-69
2022/01/16 06:23:16;;;;;;;4.13;2.07;;;2.00;99.90;;;;;;5029926;28;20202;-69
2022/01/16 06:25:44;;;;;;;5.80;2.10;;;2.00;99.90;;;;;;5030137;28;20272;-70
2022/01/16 06:28:11;;;;;;;6.57;2.60;;;2.00;99.90;;;;;;5030004;28;20567;-68
2022/01/16 06:30:39;;;;;;;2.97;2.10;;;2.00;99.90;;;;;;5031894;28;20199;-70
2022/01/16 06:33:06;;;;;;;6.50;2.37;;;2.00;99.90;;;;;;5039243;28;20201;-70
2022/01/16 06:35:33;;;;;;;5.07;2.30;;;2.00;99.90;;;;;;5032794;28;20203;-68
2022/01/16 06:38:00;;;;;;;4.70;2.47;;;1.90;99.90;;;;;;5029587;28;20226;-69
2022/01/16 06:40:26;;;;;;;4.77;2.30;;;1.80;99.90;;;;;;5041158;28;20208;-67
2022/01/16 06:42:53;;;;;;;8.63;3.43;;;1.80;99.90;;;;;;5049753;28;20756;-68
2022/01/16 06:45:20;;;;;;;5.17;2.43;;;1.80;99.90;;;;;;5049463;28;20206;-72
2022/01/16 06:47:48;;;;;;;5.20;2.40;;;1.80;99.90;;;;;;5049319;28;20213;-68
2022/01/16 06:50:15;;;;;;;4.10;2.47;;;1.80;99.90;;;;;;5049158;28;20212;-68
2022/01/16 06:52:42;;;;;;;4.57;2.67;;;1.80;99.90;;;;;;5049388;28;20279;-66
2022/01/16 06:55:10;;;;;;;3.93;2.50;;;1.70;99.90;;;;;;5049148;28;20215;-71
2022/01/16 06:57:36;;;;;;;3.13;2.50;;;1.80;99.90;;;;;;5049327;28;20694;-68
2022/01/16 07:00:05;;;;;;;7.73;2.70;;;1.80;99.90;;;;;;5047305;28;20290;-67
2022/01/16 07:02:32;;;;;;;5.73;2.50;;;1.80;99.90;;;;;;5047529;28;20200;-67
2022/01/16 07:05:02;;;;;;;4.40;2.43;;;1.70;99.90;;;;;;5048844;28;20201;-69
2022/01/16 07:07:29;;;;;;;5.43;2.63;;;1.80;99.90;;;;;;5049365;28;20201;-67
2022/01/16 07:09:55;;;;;;;3.43;2.23;;;1.80;99.90;;;;;;5048971;28;20209;-69
2022/01/16 07:12:22;;;;;;;6.67;2.73;;;1.80;99.90;;;;;;5037839;28;20297;-67
2022/01/16 07:14:49;;;;;;;4.67;2.33;;;1.80;99.90;;;;;;5046880;28;20197;-69
2022/01/16 07:17:16;;;;;;;4.53;2.43;;;1.90;99.90;;;;;;5047378;28;20227;-68
2022/01/16 07:19:43;;;;;;;3.90;2.43;;;1.80;99.90;;;;;;5047768;28;20573;-70
2022/01/16 07:22:11;;;;;;;4.00;2.60;;;1.90;99.90;;;;;;5045715;28;20197;-70
2022/01/16 07:24:38;;;;;;;4.93;2.80;;;1.90;99.90;;;;;;5028874;28;20205;-70
2022/01/16 07:27:05;;;;;;;4.33;2.30;;;1.90;99.90;;;;;;5028944;28;20216;-69
2022/01/16 07:29:32;;;;;;;2.77;2.20;;;2.00;99.90;;;;;;5029152;28;20199;-70
2022/01/16 07:31:59;;;;;;;5.73;2.23;;;2.00;99.90;;;;;;5029670;28;20288;-68
2022/01/16 07:34:26;;;;;;;7.87;2.90;;;2.10;99.90;;;;;;5036297;28;20237;-69
2022/01/16 07:36:53;;;;;;;5.83;2.47;;;2.20;99.90;;;;;;5028460;28;20199;-68
2022/01/16 07:39:21;;;;;;;5.57;2.53;;;2.20;99.90;;;;;;5029034;28;20222;-70
2022/01/16 07:41:48;;;;;;;5.67;2.87;;;2.20;99.90;;;;;;5031995;28;20232;-69
2022/01/16 07:44:16;;;;;;;4.00;2.30;;;2.10;99.90;;;;;;5039115;28;20259;-69
2022/01/16 07:46:42;;;;;;;4.27;1.93;;;2.10;99.90;;;;;;5029517;28;20219;-68
2022/01/16 07:49:09;;;;;;;5.37;2.20;;;2.00;99.90;;;;;;5040753;28;20203;-71
2022/01/16 07:51:36;;;;;;;8.43;2.53;;;1.90;99.90;;;;;;5032013;28;20573;-71
2022/01/16 07:54:03;;;;;;;4.23;2.47;;;1.90;99.90;;;;;;5028436;28;20206;-71
2022/01/16 07:56:31;;;;;;;3.57;2.20;;;1.90;99.90;;;;;;5028805;28;20200;-69
2022/01/16 07:58:58;;;;;;;4.80;2.20;;;1.90;99.90;;;;;;5028405;28;20228;-70
2022/01/16 08:01:25;;;;;;;4.93;2.30;;;1.90;99.90;;;;;;5028358;28;20205;-70
2022/01/16 08:03:51;;;;;;;6.73;2.53;;;1.90;99.90;;;;;;5031240;28;20220;-69
2022/01/16 08:06:18;;;;;;;3.53;2.03;;;2.00;99.90;;;;;;5047531;28;20221;-68
2022/01/16 08:08:45;;;;;;;3.93;2.20;;;2.00;99.90;;;;;;5048170;28;20213;-69
2022/01/16 08:11:12;;;;;;;3.73;2.07;;;2.00;99.90;;;;;;5030777;28;20217;-69
2022/01/16 08:13:41;;;;;;;4.40;2.10;;;2.00;99.90;;;;;;5029502;28;20214;-69
2022/01/16 08:16:08;;;;;;;7.00;2.40;;;1.90;99.90;;;;;;5032057;28;20222;-69
2022/01/16 08:18:35;;;;;;;6.47;2.00;;;1.90;99.90;;;;;;5047759;28;20226;-69
2022/01/16 08:21:02;;;;;;;5.10;2.00;;;1.80;99.90;;;;;;5048169;28;20579;-69
2022/01/16 08:23:29;;;;;;;3.70;2.20;;;1.80;99.90;;;;;;5048333;28;20224;-69
2022/01/16 08:25:56;;;;;;;3.60;2.00;;;1.80;99.90;;;;;;5048110;28;20667;-69
2022/01/16 08:28:23;;;;;;;5.03;2.50;;;1.90;99.90;;;;;;5048371;28;20702;-67
2022/01/16 08:30:51;;;;;;;4.17;2.00;;;2.00;99.90;;;;;;5031023;28;20210;-70
2022/01/16 08:33:18;;;;;;;3.83;1.93;;;2.00;99.90;;;;;;5027383;28;20229;-68
2022/01/16 08:35:44;;;;;;;6.00;2.10;;;1.90;99.90;;;;;;5030786;28;20198;-69
2022/01/16 08:38:11;;;;;;;10.17;2.20;;;1.90;99.90;;;;;;5031739;28;20222;-69
2022/01/16 08:40:38;;;;;;;4.93;2.00;;;1.90;99.90;;;;;;5031440;28;20242;-70
2022/01/16 08:43:08;;;;;;;3.47;2.00;;;1.90;99.90;;;;;;5031497;28;20217;-69
2022/01/16 08:45:36;;;;;;;5.73;2.00;;;1.90;99.90;;;;;;5031615;28;20222;-73
2022/01/16 08:48:05;;;;;;;3.00;1.97;;;1.90;99.90;;;;;;5031570;28;20561;-72
2022/01/16 08:50:33;;;;;;;5.03;2.20;;;1.90;99.90;;;;;;5031628;28;20212;-70
2022/01/16 08:53:00;;;;;;;4.00;2.20;;;2.00;99.90;;;;;;5031215;28;20212;-69
2022/01/16 08:55:27;;;;;;;8.53;2.90;;;2.00;99.90;;;;;;5031659;28;20202;-68
2022/01/16 08:57:58;;;;;;;6.10;2.37;;;2.10;99.90;;;;;;5031340;28;20301;-68
2022/01/16 09:00:25;;;;;;;4.60;2.20;;;2.10;99.90;;;;;;5031309;28;20677;-69
2022/01/16 09:02:52;;;;;;;5.83;2.20;;;2.10;99.90;;;;;;5039955;28;20201;-71
2022/01/16 09:05:20;;;;;;;3.13;2.30;;;2.10;99.90;;;;;;5051350;28;20672;-71
2022/01/16 09:07:47;;;;;;;5.03;2.13;;;2.00;99.90;;;;;;5051009;28;20304;-68
2022/01/16 09:10:14;;;;;;;8.47;2.63;;;2.00;99.90;;;;;;5039974;28;20687;-70
2022/01/16 09:12:41;;;;;;;7.40;2.13;;;2.00;99.90;;;;;;5045986;28;20198;-69
2022/01/16 09:15:10;;;;;;;5.83;2.40;;;2.00;99.90;;;;;;5051351;28;20211;-70
2022/01/16 09:17:37;;;;;;;4.27;2.37;;;2.00;99.90;;;;;;5050784;28;20213;-70
2022/01/16 09:20:05;;;;;;;5.77;2.43;;;2.10;99.90;;;;;;5050786;28;20221;-68
2022/01/16 09:22:36;;;;;;;5.40;2.07;;;2.10;99.90;;;;;;5040954;28;20567;-71
2022/01/16 09:25:04;;;;;;;6.20;2.23;;;2.10;99.90;;;;;;5031102;28;20247;-68
2022/01/16 09:27:33;;;;;;;4.03;2.23;;;2.00;99.90;;;;;;5031067;28;20255;-70
2022/01/16 09:29:59;;;;;;;5.03;2.20;;;2.00;99.90;;;;;;5030813;28;20211;-67
2022/01/16 09:32:26;;;;;;;7.50;2.37;;;1.90;99.90;;;;;;5030797;28;20226;-67
2022/01/16 09:34:53;;;;;;;3.10;1.80;;;1.90;99.90;;;;;;5030878;28;20216;-68
2022/01/16 09:37:20;;;;;;;4.93;2.20;;;1.90;99.90;;;;;;5030938;28;20233;-70
2022/01/16 09:39:50;;;;;;;4.23;2.27;;;2.00;99.90;;;;;;5030683;28;20229;-67
2022/01/16 09:42:17;;;;;;;4.97;2.10;;;2.00;99.90;;;;;;5042368;28;20233;-70
2022/01/16 09:44:45;;;;;;;4.10;1.90;;;2.10;99.90;;;;;;5050152;28;20210;-70
2022/01/16 09:47:12;;;;;;;4.10;2.10;;;2.10;99.90;;;;;;5050567;28;20205;-70
2022/01/16 09:49:40;;;;;;;3.00;1.90;;;2.20;99.90;;;;;;5050783;28;20201;-70
2022/01/16 09:52:07;;;;;;;3.60;1.97;;;2.20;99.90;;;;;;5046292;28;20202;-69
2022/01/16 09:54:37;;;;;;;5.80;2.40;;;2.20;99.90;;;;;;5032712;28;20210;-71
2022/01/16 09:57:06;;;;;;;5.20;1.90;;;2.20;99.90;;;;;;5030791;28;20317;-69
2022/01/16 09:59:33;;;;;;;5.83;2.13;;;2.20;99.90;;;;;;5030299;28;20226;-69
2022/01/16 10:02:00;;;;;;;3.80;1.97;;;2.20;99.90;;;;;;5030378;28;20198;-69
2022/01/16 10:04:31;;;;;;;6.53;2.23;;;2.20;99.90;;;;;;5030170;28;20210;-72
2022/01/16 10:06:59;;;;;;;5.73;2.20;;;2.20;99.90;;;;;;5030733;28;20210;-71
2022/01/16 10:09:26;;;;;;;4.67;2.10;;;2.20;99.90;;;;;;5031425;28;20572;-68
2022/01/16 10:11:58;;;;;;;4.00;2.17;;;2.20;99.90;;;;;;5030177;28;20245;-70
2022/01/16 10:14:30;;;;;;;5.30;2.20;;;2.30;99.90;;;;;;5030497;28;20210;-70
2022/01/16 10:16:57;;;;;;;4.53;2.23;;;2.30;99.90;;;;;;5030587;28;20210;-70
2022/01/16 10:19:26;;;;;;;5.50;2.40;;;2.30;99.90;;;;;;5029979;28;20229;-70
2022/01/16 10:21:54;;;;;;;3.07;1.93;;;2.30;99.90;;;;;;5030461;28;20583;-70
2022/01/16 10:24:24;;;;;;;3.73;2.30;;;2.30;99.90;;;;;;5034305;28;20198;-70
2022/01/16 10:27:12;;;;;;;4.63;2.33;;;2.30;99.90;;;;;;5049869;28;20258;-69
2022/01/16 10:29:43;;;;;;;4.13;2.00;;;2.30;99.90;;;;;;5050216;28;20549;-68
2022/01/16 10:32:15;;;;;;;4.60;2.10;;;2.20;99.90;;;;;;5049724;28;20222;-70
2022/01/16 10:34:44;;;;;;;3.27;1.93;;;2.20;99.90;;;;;;5049878;28;20257;-69
2022/01/16 10:37:23;;;;;;;6.17;1.87;;;2.20;99.90;;;;;;5043583;28;20694;-70
2022/01/16 10:39:55;;;;;;;4.33;1.87;;;2.20;99.90;;;;;;5030745;28;20229;-69
2022/01/16 10:42:23;;;;;;;6.17;1.90;;;2.20;99.90;;;;;;5029655;28;20670;-70
2022/01/16 10:45:05;;;;;;;6.67;2.10;;;2.20;99.90;;;;;;5029976;28;20297;-70
2022/01/16 10:47:35;;;;;;;4.47;2.10;;;2.20;99.90;;;;;;5029886;28;20642;-71
2022/01/16 10:50:11;;;;;;;4.00;1.73;;;2.10;99.90;;;;;;5030105;28;20626;-71
2022/01/16 10:52:55;;;;;;;8.53;2.27;;;2.10;99.90;;;;;;5029598;28;20201;-70
2022/01/16 10:55:25;;;;;;;4.17;2.00;;;2.20;99.90;;;;;;5046525;28;20202;-70
2022/01/16 10:57:59;;;;;;;7.27;4.00;;;2.10;99.90;;;;;;5048733;28;20296;-70
2022/01/16 11:00:28;;;;;;;5.50;2.30;;;2.10;99.90;;;;;;5028678;28;20213;-70
2022/01/16 11:02:58;;;;;;;5.20;2.17;;;2.00;99.90;;;;;;5029938;28;20213;-71
2022/01/16 11:05:26;;;;;;;5.33;1.90;;;2.10;99.90;;;;;;5029873;28;20198;-70
2022/01/16 11:07:58;;;;;;;5.07;2.00;;;2.00;99.90;;;;;;5029283;28;20289;-69
2022/01/16 11:10:27;;;;;;;5.10;2.00;;;2.00;99.90;;;;;;5029603;28;20198;-69
2022/01/16 11:12:56;;;;;;;4.10;2.13;;;2.10;99.90;;;;;;5029136;28;20400;-70
2022/01/16 11:15:23;;;;;;;5.63;2.13;;;2.10;99.90;;;;;;5029483;28;20210;-69
2022/01/16 11:17:51;;;;;;;4.03;2.03;;;2.10;99.90;;;;;;5029384;28;20564;-69
2022/01/16 11:20:26;;;;;;;4.60;2.10;;;2.20;99.90;;;;;;5028405;28;20214;-70
2022/01/16 11:23:06;;;;;;;5.80;1.90;;;2.20;99.90;;;;;;5029175;28;20358;-69
2022/01/16 11:25:38;;;;;;;3.77;1.90;;;2.20;99.90;;;;;;5028965;28;20226;-70
2022/01/16 11:28:09;;;;;;;5.33;2.10;;;2.20;99.90;;;;;;5029512;28;20226;-70
2022/01/16 11:30:38;;;;;;;5.67;2.10;;;2.20;99.90;;;;;;5029167;27;20230;-70
2022/01/16 11:33:07;;;;;;;7.90;3.70;;;2.10;99.90;;;;;;5029464;28;20581;-69
2022/01/16 11:35:40;;;;;;;6.10;2.30;;;2.00;99.90;;;;;;5028864;28;20267;-69
2022/01/16 11:38:07;;;;;;;5.20;2.20;;;1.90;99.90;;;;;;5028887;28;20255;-70
2022/01/16 11:40:43;;;;;;;5.73;2.03;;;1.90;99.90;;;;;;5028722;28;20593;-70
2022/01/16 11:43:16;;;;;;;5.57;2.10;;;2.00;99.90;;;;;;5030122;28;20651;-70
2022/01/16 11:45:48;;;;;;;4.53;2.10;;;2.00;99.90;;;;;;5028802;28;20191;-70
2022/01/16 11:48:20;;;;;;;4.03;2.13;;;2.00;99.90;;;;;;5028738;27;20289;-70
2022/01/16 11:50:49;;;;;;;5.30;2.33;;;2.10;99.90;;;;;;5029087;28;20190;-68
2022/01/16 11:53:49;;;;;;;5.87;2.20;;;2.10;99.90;;;;;;5028869;28;20222;-70
2022/01/16 11:56:50;;;;;;;4.80;2.10;;;2.00;99.90;;;;;;5030082;28;20202;-69
2022/01/16 11:59:19;;;;;;;7.37;2.20;;;2.00;99.90;;;;;;5048226;28;20229;-72
2022/01/16 12:01:49;;;;;;;8.57;2.33;;;2.00;99.90;;;;;;5047062;28;20242;-68
2022/01/16 12:04:58;;;;;;;7.80;2.60;;;2.00;99.90;;;;;;5048545;28;20215;-70
2022/01/16 12:07:50;;;;;;;6.37;2.60;;;1.90;99.90;;;;;;5047526;28;20205;-70
2022/01/16 12:10:54;;;;;;;6.60;2.30;;;1.70;99.90;;;;;;5021906;28;20198;-69
2022/01/16 12:13:52;;;;;;;7.93;3.50;;;1.60;99.90;;;;;;5031702;28;20204;-71
2022/01/16 12:16:46;;;;;;;5.20;2.80;;;1.70;99.90;;;;;;5032073;28;20243;-71
2022/01/16 12:19:36;;;;;;;4.97;2.17;;;1.70;99.90;;;;;;5050414;27;20296;-70
2022/01/16 12:22:07;;;;;;;2.10;1.90;;;1.70;99.90;;;;;;5040973;27;20203;-70
2022/01/16 12:24:39;;;;;;;6.10;2.47;;;1.80;99.90;;;;;;5043715;28;20191;-67
2022/01/16 12:27:47;;;;;;;9.03;2.63;;;1.80;99.90;;;;;;5031484;28;20202;-70
2022/01/16 12:30:35;;;;;;;7.63;2.57;;;1.90;99.90;;;;;;4986365;28;20199;-71
2022/01/16 12:33:11;;;;;;;6.20;2.43;;;1.90;99.90;;;;;;5050255;28;20297;-68
2022/01/16 12:36:15;;;;;;;5.83;2.37;;;1.90;99.90;;;;;;5051295;28;20196;-69
2022/01/16 12:38:53;;;;;;;9.13;2.80;;;1.90;99.90;;;;;;5051564;28;20229;-70
2022/01/16 12:41:25;;;;;;;6.33;2.77;;;1.90;99.90;;;;;;5043565;28;20234;-70
2022/01/16 12:43:57;;;;;;;5.30;2.70;;;2.00;99.90;;;;;;5031559;28;20186;-68
2022/01/16 12:46:27;;;;;;;5.10;2.60;;;2.00;99.90;;;;;;5031460;28;20553;-69
2022/01/16 12:48:56;;;;;;;7.90;2.90;;;2.00;99.90;;;;;;5105915;27;20194;-69
2022/01/16 12:51:26;;;;;;;5.97;3.03;;;2.00;99.90;;;;;;5156561;27;20292;-70
2022/01/16 12:53:56;;;;;;;12.13;3.87;;;2.00;99.90;;;;;;5112301;27;20201;-69
2022/01/16 12:56:29;;;;;;;5.27;3.23;;;2.00;99.90;;;;;;5070700;28;20204;-71
2022/01/16 12:58:58;;;;;;;7.17;3.20;;;2.00;99.90;;;;;;5073785;27;20280;-70
2022/01/16 13:01:26;;;;;;;8.70;3.70;;;2.00;99.90;;;;;;5070955;28;20676;-70
2022/01/16 13:03:53;;;;;;;10.60;3.73;;;1.90;99.90;;;;;;5071400;28;20208;-69
2022/01/16 13:06:26;;;;;;;8.23;4.20;;;1.90;99.90;;;;;;5140316;27;20202;-69
2022/01/16 13:08:59;;;;;;;7.43;3.70;;;1.90;99.90;;;;;;5075740;27;20205;-70
2022/01/16 13:11:29;;;;;;;8.13;3.73;;;1.80;99.90;;;;;;5032175;28;20352;-71
2022/01/16 13:13:57;;;;;;;9.30;4.10;;;1.70;99.90;;;;;;5036851;28;20312;-70
2022/01/16 13:16:25;;;;;;;8.13;3.57;;;1.60;99.90;;;;;;5051167;28;20213;-68
2022/01/16 13:19:07;;;;;;;9.83;3.93;;;1.60;99.90;;;;;;5050845;28;20205;-68
2022/01/16 13:21:42;;;;;;;7.00;3.90;;;1.60;99.90;;;;;;5050463;28;20190;-68
2022/01/16 13:24:22;;;;;;;8.00;3.47;;;1.60;99.90;;;;;;5050881;28;20260;-71
2022/01/16 13:26:49;;;;;;;9.27;3.60;;;1.60;99.90;;;;;;5051316;28;20208;-67
2022/01/16 13:29:18;;;;;;;8.70;3.57;;;1.50;99.90;;;;;;5051033;28;20541;-67
2022/01/16 13:31:45;;;;;;;10.87;4.10;;;1.60;99.90;;;;;;5050729;28;20206;-69
2022/01/16 13:34:14;;;;;;;7.67;3.90;;;1.60;99.90;;;;;;5050876;28;20596;-67
2022/01/16 13:36:51;;;;;;;6.13;3.60;;;1.60;99.90;;;;;;5048547;28;20202;-68
2022/01/16 13:42:22;;;;;;;10.20;4.17;;;1.60;99.90;;;;;;5109151;27;20560;-66
2022/01/16 13:44:49;;;;;;;10.13;4.13;;;1.60;99.90;;;;;;5109898;28;20659;-67
2022/01/16 13:47:21;;;;;;;10.40;4.33;;;1.60;99.90;;;;;;5099715;28;20196;-66